Time;durP1;ratioP1;P1;durP2;ratioP2;P2;SDS_P1;SDS_P2;PMS_P1;PMS_P2;Temp;Humidity;BMP_temperature;BMP_pressure;BME280_temperature;BME280_humidity;BME280_pressure;Samples;Min_cycle;Max_cycle;Signal;HPM_P1;HPM_P2
2023/12/27 00:01:59;;;;;;;7.60;2.00;;;24.40;72.40;;;;;;5012993;28;20409;-77
2023/12/27 00:04:26;;;;;;;6.80;1.70;;;24.50;71.90;;;;;;5013703;28;20061;-76
2023/12/27 00:06:55;;;;;;;6.95;1.58;;;24.50;72.30;;;;;;5008265;28;20389;-76
2023/12/27 00:09:22;;;;;;;11.02;1.77;;;24.50;72.20;;;;;;5012533;28;20034;-76
2023/12/27 00:11:50;;;;;;;6.47;1.50;;;24.50;72.20;;;;;;5012092;28;20048;-85
2023/12/27 00:14:18;;;;;;;7.45;1.63;;;24.60;72.10;;;;;;5003225;28;20026;-76
2023/12/27 00:16:45;;;;;;;8.75;2.00;;;24.60;71.60;;;;;;5012737;28;20040;-76
2023/12/27 00:19:13;;;;;;;4.55;1.92;;;24.60;71.80;;;;;;5012344;28;20014;-76
2023/12/27 00:21:40;;;;;;;6.28;1.80;;;24.60;72.10;;;;;;5017737;28;20104;-76
2023/12/27 00:24:08;;;;;;;6.63;1.92;;;24.60;72.50;;;;;;5013985;28;20037;-77
2023/12/27 00:26:35;;;;;;;6.13;1.80;;;24.60;71.80;;;;;;5013242;28;20033;-80
2023/12/27 00:29:02;;;;;;;8.65;1.50;;;24.60;72.00;;;;;;5013755;28;20109;-77
2023/12/27 00:31:30;;;;;;;5.72;1.65;;;24.50;72.20;;;;;;5017508;28;20392;-77
2023/12/27 00:33:57;;;;;;;5.53;1.80;;;24.50;71.80;;;;;;5029239;28;20512;-77
2023/12/27 00:36:29;;;;;;;4.57;1.90;;;24.40;71.50;;;;;;5018019;28;20492;-76
2023/12/27 00:38:58;;;;;;;8.68;1.83;;;24.30;71.60;;;;;;5023136;28;20037;-76
2023/12/27 00:41:25;;;;;;;4.32;1.60;;;24.30;71.80;;;;;;5014699;28;20079;-81
2023/12/27 00:43:52;;;;;;;5.32;1.40;;;24.30;72.20;;;;;;5022446;28;20038;-78
2023/12/27 00:46:21;;;;;;;7.28;1.63;;;24.30;72.10;;;;;;5022962;28;20472;-78
2023/12/27 00:48:49;;;;;;;8.70;1.67;;;24.30;71.90;;;;;;5017185;28;20026;-82
2023/12/27 00:51:20;;;;;;;5.45;1.38;;;24.30;71.80;;;;;;5011976;28;20026;-77
2023/12/27 00:53:48;;;;;;;6.80;1.45;;;24.40;72.00;;;;;;5012902;28;20025;-80
2023/12/27 00:56:17;;;;;;;6.47;1.20;;;24.60;72.20;;;;;;5010730;28;20045;-80
2023/12/27 00:58:44;;;;;;;5.95;1.80;;;24.70;72.00;;;;;;5012429;28;20053;-76
2023/12/27 01:01:13;;;;;;;4.80;1.85;;;24.80;71.50;;;;;;5015434;28;20025;-88
2023/12/27 01:03:42;;;;;;;4.82;1.60;;;24.90;71.20;;;;;;5013290;28;20082;-81
2023/12/27 01:06:12;;;;;;;7.95;1.60;;;24.90;70.20;;;;;;5012843;28;20519;-84
2023/12/27 01:08:40;;;;;;;7.88;1.92;;;24.90;69.70;;;;;;5020812;28;20052;-77
2023/12/27 01:11:08;;;;;;;9.10;1.48;;;24.90;70.00;;;;;;5033598;28;20028;-77
2023/12/27 01:13:35;;;;;;;5.22;1.67;;;24.80;69.90;;;;;;5021620;28;20377;-77
2023/12/27 01:16:03;;;;;;;7.68;1.45;;;24.80;70.30;;;;;;5032702;28;20026;-82
2023/12/27 01:18:32;;;;;;;6.35;1.50;;;24.70;70.20;;;;;;5031215;28;20052;-81
2023/12/27 01:21:00;;;;;;;8.77;1.63;;;24.60;70.00;;;;;;5018672;28;20025;-86
2023/12/27 01:23:30;;;;;;;4.93;1.42;;;24.50;70.30;;;;;;5027440;28;20452;-78
2023/12/27 01:26:01;;;;;;;3.97;1.40;;;24.50;70.20;;;;;;5033144;28;20022;-77
2023/12/27 01:28:33;;;;;;;5.10;1.45;;;24.50;70.10;;;;;;5020734;28;20596;-81
2023/12/27 01:31:02;;;;;;;5.88;1.45;;;24.50;70.10;;;;;;5013608;28;20022;-77
2023/12/27 01:33:30;;;;;;;4.47;1.50;;;24.40;70.20;;;;;;5016308;28;20104;-83
2023/12/27 01:35:57;;;;;;;5.65;1.05;;;24.40;70.60;;;;;;5032930;28;20025;-77
2023/12/27 01:38:25;;;;;;;3.75;1.30;;;24.30;69.50;;;;;;5022347;28;20046;-77
2023/12/27 01:40:53;;;;;;;6.68;1.70;;;24.30;69.90;;;;;;5021406;28;20036;-78
2023/12/27 01:43:20;;;;;;;2.90;1.58;;;24.20;69.70;;;;;;5024373;28;20437;-77
2023/12/27 01:45:50;;;;;;;5.93;1.45;;;24.20;69.80;;;;;;5013782;28;20052;-77
2023/12/27 01:48:22;;;;;;;8.48;1.73;;;24.30;70.50;;;;;;5032157;28;20057;-78
2023/12/27 01:50:51;;;;;;;5.50;1.30;;;24.30;70.30;;;;;;5021867;28;20072;-77
2023/12/27 01:53:22;;;;;;;5.00;1.40;;;24.20;70.60;;;;;;5004133;28;20477;-78
2023/12/27 01:55:54;;;;;;;3.20;1.40;;;24.20;69.50;;;;;;5012466;28;20044;-77
2023/12/27 01:58:27;;;;;;;5.63;1.60;;;24.00;69.60;;;;;;5003590;28;20045;-77
2023/12/27 02:00:56;;;;;;;9.13;1.42;;;24.00;69.90;;;;;;5012577;28;20026;-77
2023/12/27 02:03:26;;;;;;;4.40;1.05;;;23.90;69.50;;;;;;5011790;28;20046;-80
2023/12/27 02:05:57;;;;;;;5.78;1.45;;;23.90;70.50;;;;;;5017065;28;20053;-78
2023/12/27 02:08:25;;;;;;;4.82;1.58;;;23.90;71.10;;;;;;5012304;28;20128;-79
2023/12/27 02:10:57;;;;;;;9.13;1.23;;;24.00;71.20;;;;;;5011377;28;20461;-81
2023/12/27 02:13:26;;;;;;;7.03;1.50;;;24.00;70.30;;;;;;5020152;28;20032;-80
2023/12/27 02:16:16;;;;;;;7.72;1.20;;;24.00;70.50;;;;;;5012240;28;20083;-81
2023/12/27 02:18:48;;;;;;;4.95;1.33;;;24.00;70.10;;;;;;5016057;28;20159;-78
2023/12/27 02:21:16;;;;;;;2.78;1.35;;;24.20;70.70;;;;;;5032622;28;20476;-82
2023/12/27 02:23:49;;;;;;;6.05;1.27;;;24.20;70.50;;;;;;5029812;28;20041;-78
2023/12/27 02:26:17;;;;;;;8.82;1.40;;;24.30;70.40;;;;;;5025340;28;20051;-81
2023/12/27 02:28:45;;;;;;;3.85;1.33;;;24.50;70.20;;;;;;5012745;28;20037;-77
2023/12/27 02:31:13;;;;;;;2.63;1.23;;;24.50;69.70;;;;;;5015027;28;20037;-82
2023/12/27 02:33:50;;;;;;;5.10;1.67;;;24.70;70.00;;;;;;5022866;28;20022;-84
2023/12/27 02:36:18;;;;;;;2.58;1.00;;;24.80;69.10;;;;;;5021958;28;20051;-77
2023/12/27 02:38:46;;;;;;;4.93;1.30;;;24.90;69.60;;;;;;4998729;28;20465;-81
2023/12/27 02:41:19;;;;;;;2.83;1.00;;;25.00;69.70;;;;;;5016417;28;20029;-85
2023/12/27 02:43:47;;;;;;;6.85;1.55;;;25.10;69.70;;;;;;5021373;28;20045;-77
2023/12/27 02:46:15;;;;;;;5.75;1.55;;;25.10;69.60;;;;;;5022291;28;20424;-76
2023/12/27 02:48:43;;;;;;;4.93;1.10;;;25.20;69.40;;;;;;5015571;28;20034;-85
2023/12/27 02:51:12;;;;;;;8.50;1.50;;;25.10;69.30;;;;;;5016279;28;20030;-76
2023/12/27 02:53:40;;;;;;;6.32;1.50;;;25.10;69.60;;;;;;5016340;28;20017;-83
2023/12/27 02:56:10;;;;;;;3.10;1.15;;;25.00;69.00;;;;;;5016214;28;20098;-84
2023/12/27 02:58:41;;;;;;;3.67;1.13;;;24.90;68.90;;;;;;5015871;28;20052;-80
2023/12/27 03:01:09;;;;;;;3.28;1.38;;;24.80;69.30;;;;;;5017618;28;20096;-86
2023/12/27 03:03:41;;;;;;;3.10;0.90;;;24.80;69.80;;;;;;5015284;28;20128;-77
2023/12/27 03:06:09;;;;;;;5.60;1.42;;;24.70;70.00;;;;;;5016011;28;20497;-80
2023/12/27 03:08:37;;;;;;;5.72;1.05;;;24.70;70.20;;;;;;5016057;28;20034;-84
2023/12/27 03:11:06;;;;;;;3.85;1.23;;;24.60;70.20;;;;;;5030690;28;20547;-83
2023/12/27 03:13:36;;;;;;;1.45;1.00;;;24.60;70.30;;;;;;5035767;28;20021;-79
2023/12/27 03:16:07;;;;;;;9.55;1.30;;;24.50;70.40;;;;;;5034657;28;20075;-77
2023/12/27 03:18:35;;;;;;;6.63;1.55;;;24.40;70.00;;;;;;5023395;28;20076;-77
2023/12/27 03:21:03;;;;;;;4.18;1.25;;;24.30;70.60;;;;;;5015833;28;20025;-77
2023/12/27 03:23:31;;;;;;;3.40;1.27;;;24.20;70.70;;;;;;5021108;28;20104;-77
2023/12/27 03:25:59;;;;;;;2.63;0.90;;;24.10;70.60;;;;;;5033974;28;20034;-86
2023/12/27 03:28:28;;;;;;;3.95;0.90;;;23.70;65.40;;;;;;5035149;28;20079;-84
2023/12/27 03:30:56;;;;;;;4.63;1.02;;;23.10;65.40;;;;;;5024921;28;20519;-83
2023/12/27 03:33:28;;;;;;;5.70;1.40;;;22.50;68.20;;;;;;5018219;28;20218;-77
2023/12/27 03:35:56;;;;;;;7.53;2.08;;;22.00;69.30;;;;;;5014106;28;20511;-76
2023/12/27 03:38:25;;;;;;;9.20;1.70;;;21.50;72.10;;;;;;5015315;28;20113;-78
2023/12/27 03:40:52;;;;;;;6.20;1.45;;;21.20;74.00;;;;;;5004479;28;20061;-76
2023/12/27 03:43:21;;;;;;;4.97;1.52;;;20.90;74.70;;;;;;5003046;28;20112;-76
2023/12/27 03:45:54;;;;;;;5.60;1.30;;;20.70;75.60;;;;;;5005027;28;20045;-76
2023/12/27 03:48:24;;;;;;;5.40;1.20;;;20.50;76.80;;;;;;5017824;28;20036;-78
2023/12/27 03:50:52;;;;;;;6.40;1.30;;;20.50;78.80;;;;;;5011986;28;20057;-78
2023/12/27 03:53:20;;;;;;;2.08;1.00;;;20.50;79.60;;;;;;5026863;28;20022;-78
2023/12/27 03:55:48;;;;;;;2.35;1.13;;;20.60;81.00;;;;;;5013257;28;20030;-78
2023/12/27 03:58:15;;;;;;;3.17;1.00;;;20.60;81.70;;;;;;5030974;28;20068;-81
2023/12/27 04:00:46;;;;;;;2.97;1.10;;;20.50;81.90;;;;;;5020433;28;20159;-79
2023/12/27 04:03:15;;;;;;;1.48;1.00;;;20.50;82.20;;;;;;5013396;28;20481;-78
2023/12/27 04:05:43;;;;;;;4.28;1.20;;;20.50;82.80;;;;;;5012686;28;20053;-77
2023/12/27 04:08:11;;;;;;;2.72;1.10;;;20.40;83.20;;;;;;5014590;28;20018;-81
2023/12/27 04:10:42;;;;;;;2.88;0.98;;;20.50;83.60;;;;;;5014480;28;20492;-82
2023/12/27 04:13:10;;;;;;;2.55;1.27;;;20.50;83.70;;;;;;5014345;28;20385;-82
2023/12/27 04:15:38;;;;;;;4.63;1.80;;;20.60;83.60;;;;;;4995855;28;20042;-81
2023/12/27 04:18:07;;;;;;;2.47;1.20;;;20.60;83.90;;;;;;5013932;28;20030;-78
2023/12/27 04:20:34;;;;;;;3.67;1.60;;;20.60;84.10;;;;;;5011251;28;20159;-80
2023/12/27 04:23:02;;;;;;;2.72;1.35;;;20.70;83.90;;;;;;5012542;28;20033;-82
2023/12/27 04:25:30;;;;;;;3.03;1.08;;;20.70;83.80;;;;;;5013726;28;20025;-82
2023/12/27 04:27:57;;;;;;;4.10;1.20;;;20.70;84.10;;;;;;5014887;28;20370;-77
2023/12/27 04:30:25;;;;;;;4.82;1.67;;;20.80;84.00;;;;;;5023041;28;20018;-78
2023/12/27 04:32:53;;;;;;;4.68;1.40;;;20.80;83.30;;;;;;5016790;28;20160;-78
2023/12/27 04:35:20;;;;;;;4.53;1.55;;;20.80;83.30;;;;;;5025809;28;20024;-80
2023/12/27 04:37:48;;;;;;;5.80;1.20;;;20.80;82.20;;;;;;5013092;28;20022;-78
2023/12/27 04:40:15;;;;;;;2.45;1.25;;;20.70;81.00;;;;;;5013829;28;20203;-77
2023/12/27 04:42:43;;;;;;;3.95;1.67;;;20.60;81.30;;;;;;5016516;28;20072;-82
2023/12/27 04:45:11;;;;;;;5.85;1.20;;;20.50;81.50;;;;;;5012233;28;20026;-85
2023/12/27 04:47:41;;;;;;;2.58;1.00;;;20.50;81.40;;;;;;5020717;28;20024;-78
2023/12/27 04:50:09;;;;;;;7.55;1.17;;;20.50;81.60;;;;;;5013017;28;20022;-77
2023/12/27 04:52:37;;;;;;;4.85;1.30;;;20.40;81.30;;;;;;5014292;28;20036;-85
2023/12/27 04:55:05;;;;;;;5.47;1.30;;;20.40;81.60;;;;;;5020816;28;20444;-77
2023/12/27 04:57:33;;;;;;;9.60;2.00;;;20.40;82.40;;;;;;5025315;28;20022;-80
2023/12/27 05:00:00;;;;;;;8.07;1.73;;;20.40;82.40;;;;;;5011366;28;20481;-76
2023/12/27 05:02:29;;;;;;;7.20;1.80;;;20.40;82.70;;;;;;5013627;28;20030;-82
2023/12/27 05:04:57;;;;;;;4.65;1.50;;;20.50;83.10;;;;;;5013286;28;20029;-76
2023/12/27 05:07:24;;;;;;;10.85;2.28;;;20.60;84.10;;;;;;5011524;28;20362;-79
2023/12/27 05:09:52;;;;;;;17.60;2.50;;;20.70;83.70;;;;;;5012614;28;20025;-85
2023/12/27 05:12:19;;;;;;;8.80;1.85;;;20.70;84.30;;;;;;5014383;28;20106;-77
2023/12/27 05:14:46;;;;;;;12.45;2.45;;;20.80;84.50;;;;;;5012555;28;20025;-80
2023/12/27 05:17:14;;;;;;;6.40;1.55;;;20.80;84.30;;;;;;5012969;28;20048;-82
2023/12/27 05:19:41;;;;;;;9.65;1.80;;;20.90;84.50;;;;;;5011861;28;20026;-77
2023/12/27 05:22:09;;;;;;;6.18;1.60;;;21.00;84.50;;;;;;5022810;28;20037;-78
2023/12/27 05:24:36;;;;;;;11.73;2.70;;;21.10;84.70;;;;;;5012312;28;20045;-79
2023/12/27 05:27:03;;;;;;;12.10;2.42;;;21.30;85.00;;;;;;5014575;28;20087;-82
2023/12/27 05:29:31;;;;;;;15.25;2.22;;;21.40;84.80;;;;;;5018068;28;20484;-79
2023/12/27 05:31:58;;;;;;;8.10;1.90;;;21.40;84.20;;;;;;5023057;28;20112;-78
2023/12/27 05:34:27;;;;;;;8.35;2.30;;;21.40;83.80;;;;;;5012861;28;20030;-80
2023/12/27 05:36:54;;;;;;;8.90;1.88;;;21.50;84.00;;;;;;5012082;28;20033;-84
2023/12/27 05:39:22;;;;;;;13.48;2.08;;;21.60;83.70;;;;;;5017633;28;20038;-83
2023/12/27 05:41:49;;;;;;;8.13;1.77;;;21.60;83.00;;;;;;5010605;28;20045;-81
2023/12/27 05:44:16;;;;;;;10.45;2.00;;;21.50;82.90;;;;;;5011142;28;20129;-78
2023/12/27 05:46:44;;;;;;;5.55;1.40;;;21.50;82.60;;;;;;5011357;28;20037;-82
2023/12/27 05:49:11;;;;;;;7.75;1.95;;;21.50;82.70;;;;;;5012881;28;20079;-85
2023/12/27 05:51:39;;;;;;;7.38;2.05;;;21.50;82.70;;;;;;5016819;28;20030;-80
2023/12/27 05:54:07;;;;;;;12.65;2.42;;;21.60;82.60;;;;;;5033334;28;20111;-85
2023/12/27 05:56:34;;;;;;;6.07;1.58;;;21.60;82.60;;;;;;5031783;28;20504;-82
2023/12/27 05:59:02;;;;;;;8.38;2.15;;;21.60;82.90;;;;;;5013957;28;20034;-83
2023/12/27 06:01:29;;;;;;;10.57;1.77;;;21.80;83.10;;;;;;5009397;28;20081;-81
2023/12/27 06:03:57;;;;;;;6.57;1.67;;;21.80;82.30;;;;;;5010984;28;20040;-80
2023/12/27 06:06:24;;;;;;;11.00;1.70;;;22.00;82.30;;;;;;5012719;28;20042;-83
2023/12/27 06:08:51;;;;;;;9.65;1.70;;;22.00;81.70;;;;;;5012898;28;20025;-82
2023/12/27 06:11:19;;;;;;;12.23;2.05;;;22.20;81.60;;;;;;5012384;28;20072;-87
2023/12/27 06:13:47;;;;;;;8.10;1.80;;;22.10;80.70;;;;;;5011913;28;20026;-86
2023/12/27 06:16:14;;;;;;;7.25;1.55;;;22.10;80.10;;;;;;5012784;28;20033;-85
2023/12/27 06:18:42;;;;;;;9.90;2.10;;;22.10;80.40;;;;;;5012202;28;20022;-81
2023/12/27 06:21:10;;;;;;;10.05;1.90;;;22.10;79.90;;;;;;5012348;28;20022;-84
2023/12/27 06:23:38;;;;;;;8.93;1.75;;;22.10;80.10;;;;;;5019993;28;20060;-83
2023/12/27 06:26:06;;;;;;;9.40;1.58;;;22.10;80.20;;;;;;5026325;28;20018;-82
2023/12/27 06:28:34;;;;;;;11.77;1.98;;;22.10;79.10;;;;;;5012962;28;20132;-77
2023/12/27 06:31:01;;;;;;;10.95;2.00;;;22.10;79.70;;;;;;5018489;28;20067;-77
2023/12/27 06:33:28;;;;;;;7.18;1.40;;;22.20;79.20;;;;;;5032666;28;20017;-83
2023/12/27 06:35:56;;;;;;;7.57;1.90;;;22.20;79.00;;;;;;5012199;28;20497;-80
2023/12/27 06:38:23;;;;;;;8.07;1.52;;;22.30;78.30;;;;;;5010998;28;20034;-79
2023/12/27 06:40:50;;;;;;;9.35;1.98;;;22.20;76.70;;;;;;5015108;28;20156;-77
2023/12/27 06:43:19;;;;;;;6.22;1.55;;;22.10;75.40;;;;;;5012402;28;20084;-80
2023/12/27 06:45:46;;;;;;;7.55;1.92;;;22.00;75.80;;;;;;5028818;28;20045;-80
2023/12/27 06:48:14;;;;;;;5.13;1.20;;;22.00;75.50;;;;;;5017304;28;20109;-77
2023/12/27 06:50:43;;;;;;;2.75;1.10;;;22.00;75.80;;;;;;5010492;28;20030;-81
2023/12/27 06:53:10;;;;;;;13.25;1.70;;;22.00;75.90;;;;;;5011025;28;20030;-78
2023/12/27 06:55:38;;;;;;;5.85;1.60;;;22.00;76.30;;;;;;5012002;28;20105;-84
2023/12/27 06:58:05;;;;;;;6.82;1.55;;;22.00;76.30;;;;;;5017019;28;20040;-80
2023/12/27 07:00:35;;;;;;;7.38;1.40;;;22.00;76.80;;;;;;5011785;28;20501;-77
2023/12/27 07:03:02;;;;;;;4.38;1.35;;;22.00;76.70;;;;;;5010971;28;20030;-79
2023/12/27 07:05:30;;;;;;;3.33;1.50;;;22.00;77.60;;;;;;5011646;28;20034;-86
2023/12/27 07:07:57;;;;;;;7.70;1.55;;;22.10;78.10;;;;;;5019475;28;20029;-78
2023/12/27 07:10:24;;;;;;;3.35;1.30;;;22.20;78.20;;;;;;5012927;28;20030;-81
2023/12/27 07:12:52;;;;;;;5.57;1.70;;;22.20;78.00;;;;;;5014445;28;20029;-82
2023/12/27 07:15:19;;;;;;;4.85;1.00;;;22.30;77.60;;;;;;5011406;28;20057;-81
2023/12/27 07:17:47;;;;;;;6.35;1.38;;;22.20;76.00;;;;;;5014518;28;20014;-77
2023/12/27 07:20:14;;;;;;;4.65;1.40;;;22.20;75.70;;;;;;5015469;28;20029;-77
2023/12/27 07:22:41;;;;;;;3.60;1.60;;;22.20;75.40;;;;;;5015444;28;20026;-77
2023/12/27 07:25:09;;;;;;;5.13;1.52;;;22.20;75.00;;;;;;5014574;28;20333;-82
2023/12/27 07:27:39;;;;;;;8.52;1.42;;;22.30;75.30;;;;;;5014288;28;20033;-82
2023/12/27 07:30:07;;;;;;;5.38;1.48;;;22.40;75.20;;;;;;5016848;28;20923;-77
2023/12/27 07:32:35;;;;;;;6.53;1.73;;;22.60;74.20;;;;;;5021312;28;20408;-77
2023/12/27 07:35:05;;;;;;;8.10;1.55;;;22.70;73.30;;;;;;5016084;28;20156;-79
2023/12/27 07:37:33;;;;;;;5.53;1.70;;;22.80;73.50;;;;;;5015312;28;20034;-77
2023/12/27 07:40:00;;;;;;;5.15;1.50;;;22.80;72.80;;;;;;5014181;28;20026;-79
2023/12/27 07:42:27;;;;;;;5.88;1.45;;;22.80;74.30;;;;;;5014498;28;20473;-78
2023/12/27 07:44:55;;;;;;;7.15;2.25;;;22.80;74.00;;;;;;5013757;28;20044;-80
2023/12/27 07:47:23;;;;;;;6.40;2.25;;;22.80;74.20;;;;;;5014510;28;20064;-85
2023/12/27 07:49:50;;;;;;;5.10;1.40;;;22.90;74.90;;;;;;5020414;28;20485;-78
2023/12/27 07:52:17;;;;;;;14.68;4.72;;;23.00;74.40;;;;;;5023640;28;20045;-76
2023/12/27 07:54:45;;;;;;;12.13;5.22;;;23.20;74.50;;;;;;5027976;28;20484;-81
2023/12/27 07:57:12;;;;;;;3.55;1.35;;;23.20;73.70;;;;;;5028073;28;20029;-81
2023/12/27 07:59:39;;;;;;;5.75;1.60;;;23.30;73.60;;;;;;5022589;28;20044;-81
2023/12/27 08:02:07;;;;;;;8.73;1.73;;;23.40;73.00;;;;;;5024863;28;20030;-81
2023/12/27 08:04:34;;;;;;;5.32;1.50;;;23.50;73.30;;;;;;5034904;28;20048;-77
2023/12/27 08:07:02;;;;;;;3.50;1.10;;;23.60;73.10;;;;;;5026241;28;20100;-77
2023/12/27 08:09:31;;;;;;;7.07;1.35;;;23.70;72.70;;;;;;5014902;28;20041;-76
2023/12/27 08:11:58;;;;;;;4.20;1.33;;;23.70;72.80;;;;;;5013541;28;20424;-79
2023/12/27 08:14:25;;;;;;;5.50;1.42;;;23.70;72.70;;;;;;5015128;28;20036;-86
2023/12/27 08:16:53;;;;;;;2.78;1.17;;;23.70;72.10;;;;;;5008135;28;20414;-76
2023/12/27 08:19:20;;;;;;;11.48;2.10;;;23.60;72.70;;;;;;5008589;28;20025;-77
2023/12/27 08:21:47;;;;;;;3.05;1.40;;;23.60;73.00;;;;;;5015476;28;20065;-79
2023/12/27 08:24:15;;;;;;;5.97;1.85;;;23.50;72.20;;;;;;5014594;28;20070;-76
2023/12/27 08:26:42;;;;;;;4.00;1.38;;;23.40;72.80;;;;;;5014759;28;20018;-78
2023/12/27 08:29:10;;;;;;;9.13;2.40;;;23.30;71.40;;;;;;5014224;28;20026;-79
2023/12/27 08:31:37;;;;;;;5.13;1.73;;;23.30;72.20;;;;;;5014195;28;20024;-77
2023/12/27 08:34:04;;;;;;;7.82;2.35;;;23.20;72.40;;;;;;5023237;28;20022;-79
2023/12/27 08:36:32;;;;;;;5.30;2.15;;;23.10;72.00;;;;;;5014297;28;20022;-77
2023/12/27 08:38:59;;;;;;;8.60;2.60;;;23.10;72.80;;;;;;5014107;28;20060;-77
2023/12/27 08:41:27;;;;;;;4.75;2.22;;;23.00;72.90;;;;;;5013028;28;20022;-77
2023/12/27 08:43:54;;;;;;;6.50;2.33;;;22.90;72.30;;;;;;5013202;28;20132;-77
2023/12/27 08:46:22;;;;;;;4.28;1.70;;;22.80;72.40;;;;;;5018309;28;20056;-77
2023/12/27 08:48:50;;;;;;;9.35;2.40;;;22.80;73.00;;;;;;5020073;28;20076;-76
2023/12/27 08:51:17;;;;;;;7.65;2.33;;;22.70;73.20;;;;;;5012775;28;20076;-77
2023/12/27 08:53:45;;;;;;;9.13;2.20;;;22.60;73.60;;;;;;5013538;28;20022;-85
2023/12/27 08:56:12;;;;;;;7.07;1.95;;;22.60;73.60;;;;;;5014005;28;20037;-77
2023/12/27 08:58:40;;;;;;;9.10;2.45;;;22.50;73.30;;;;;;5013139;28;20041;-80
2023/12/27 09:01:07;;;;;;;7.75;3.15;;;22.50;73.20;;;;;;5013933;28;20638;-81
2023/12/27 09:03:34;;;;;;;9.77;2.88;;;22.40;73.50;;;;;;5010902;28;20112;-85
2023/12/27 09:06:02;;;;;;;6.28;2.22;;;22.40;73.70;;;;;;5025373;28;20504;-79
2023/12/27 09:08:29;;;;;;;5.65;2.42;;;22.40;74.00;;;;;;5013385;28;20030;-77
2023/12/27 09:10:57;;;;;;;8.95;2.83;;;22.30;74.20;;;;;;5013803;28;20061;-84
2023/12/27 09:13:24;;;;;;;6.80;2.72;;;22.30;74.10;;;;;;5019078;28;20034;-78
2023/12/27 09:15:51;;;;;;;16.30;3.30;;;22.30;74.10;;;;;;5015025;28;20381;-86
2023/12/27 09:18:19;;;;;;;10.80;2.50;;;22.30;74.30;;;;;;5013868;28;20105;-77
2023/12/27 09:20:46;;;;;;;10.63;2.72;;;22.30;74.20;;;;;;5010987;28;20030;-83
2023/12/27 09:23:14;;;;;;;6.45;2.17;;;22.30;74.40;;;;;;5014379;28;20116;-77
2023/12/27 09:25:41;;;;;;;7.63;2.90;;;22.30;74.60;;;;;;5013186;28;20085;-77
2023/12/27 09:28:09;;;;;;;8.50;4.47;;;22.30;75.40;;;;;;5017639;28;20022;-83
2023/12/27 09:30:37;;;;;;;6.50;3.10;;;22.30;76.60;;;;;;5013959;28;20396;-77
2023/12/27 09:33:04;;;;;;;9.25;3.42;;;22.20;76.30;;;;;;5011848;28;20034;-85
2023/12/27 09:35:32;;;;;;;11.15;2.60;;;22.20;76.30;;;;;;5014154;28;20030;-75
2023/12/27 09:37:59;;;;;;;12.60;2.70;;;22.20;76.10;;;;;;5016426;28;20021;-78
2023/12/27 09:40:26;;;;;;;5.03;2.25;;;22.10;76.10;;;;;;5019457;28;20030;-82
2023/12/27 09:42:55;;;;;;;7.55;2.78;;;22.10;76.90;;;;;;5012893;28;20030;-77
2023/12/27 09:45:24;;;;;;;11.45;2.40;;;22.10;77.20;;;;;;5012936;28;20548;-77
2023/12/27 09:47:55;;;;;;;7.70;2.90;;;22.10;77.20;;;;;;5013145;28;20041;-77
2023/12/27 09:50:23;;;;;;;9.90;3.75;;;22.00;77.70;;;;;;5030740;28;20044;-85
2023/12/27 09:52:51;;;;;;;10.80;3.58;;;22.10;78.40;;;;;;5026932;28;20029;-77
2023/12/27 09:55:19;;;;;;;11.52;3.22;;;22.10;78.50;;;;;;5032870;28;20026;-81
2023/12/27 09:57:49;;;;;;;11.98;3.20;;;22.10;78.30;;;;;;5032540;28;20029;-77
2023/12/27 10:00:18;;;;;;;11.18;3.80;;;22.00;78.00;;;;;;5038633;28;20037;-76
2023/12/27 10:02:46;;;;;;;10.80;2.90;;;21.90;77.90;;;;;;5030756;28;20391;-79
2023/12/27 10:05:27;;;;;;;9.48;2.85;;;21.80;78.20;;;;;;5037381;28;20116;-80
2023/12/27 10:07:56;;;;;;;12.32;2.92;;;21.80;78.80;;;;;;5021228;28;20034;-76
2023/12/27 10:10:26;;;;;;;16.15;3.63;;;21.80;79.40;;;;;;5018372;28;20036;-76
2023/12/27 10:12:56;;;;;;;9.80;3.47;;;21.80;79.50;;;;;;5020354;28;20544;-78
2023/12/27 10:15:23;;;;;;;9.43;2.97;;;21.80;79.60;;;;;;5013314;28;20034;-77
2023/12/27 10:17:50;;;;;;;10.48;3.05;;;21.70;79.50;;;;;;5012618;28;20021;-77
2023/12/27 10:20:38;;;;;;;10.52;3.20;;;21.70;79.50;;;;;;5021322;28;20034;-76
2023/12/27 10:23:08;;;;;;;11.25;2.63;;;21.70;79.80;;;;;;5026192;28;20140;-81
2023/12/27 10:25:36;;;;;;;9.27;2.10;;;21.70;80.00;;;;;;5032521;28;20032;-77
2023/12/27 10:28:04;;;;;;;8.85;2.25;;;21.70;80.10;;;;;;5031152;28;20140;-77
2023/12/27 10:30:31;;;;;;;8.23;2.40;;;21.70;80.30;;;;;;5034284;28;20032;-78
2023/12/27 10:33:00;;;;;;;7.43;2.72;;;21.70;80.20;;;;;;5014487;28;20022;-77
2023/12/27 10:35:31;;;;;;;6.30;1.80;;;21.70;80.50;;;;;;5012434;28;20555;-76
2023/12/27 10:38:06;;;;;;;9.20;2.08;;;21.60;80.10;;;;;;5012928;28;20025;-76
2023/12/27 10:40:39;;;;;;;8.57;1.73;;;21.60;79.90;;;;;;5013260;28;20076;-76
2023/12/27 10:43:07;;;;;;;6.80;1.90;;;21.60;80.20;;;;;;5012931;28;20057;-85
2023/12/27 10:45:36;;;;;;;5.72;2.00;;;21.50;80.00;;;;;;5029570;28;20044;-76
2023/12/27 10:48:05;;;;;;;6.03;1.95;;;21.40;80.40;;;;;;5026695;28;20069;-76
2023/12/27 10:50:34;;;;;;;8.45;2.13;;;21.40;80.20;;;;;;5013069;28;20032;-76
2023/12/27 10:53:08;;;;;;;3.28;1.33;;;21.30;80.10;;;;;;5032080;28;20029;-76
2023/12/27 10:55:38;;;;;;;9.27;1.77;;;21.30;80.10;;;;;;5036079;28;20100;-76
2023/12/27 10:58:24;;;;;;;7.60;1.70;;;21.20;80.30;;;;;;5035827;28;20025;-76
2023/12/27 11:00:53;;;;;;;8.80;2.00;;;21.20;80.60;;;;;;5033464;28;20476;-77
2023/12/27 11:03:20;;;;;;;5.93;1.48;;;21.20;81.00;;;;;;5035185;28;20034;-76
2023/12/27 11:05:48;;;;;;;9.70;2.17;;;21.20;80.90;;;;;;5033175;28;20034;-76
2023/12/27 11:08:20;;;;;;;10.57;2.10;;;21.20;80.90;;;;;;5023592;28;20034;-79
2023/12/27 11:10:50;;;;;;;7.07;1.80;;;21.10;81.00;;;;;;5015244;28;20388;-76
2023/12/27 11:13:18;;;;;;;9.82;2.20;;;21.10;81.00;;;;;;5014487;28;20389;-76
2023/12/27 11:15:46;;;;;;;9.65;1.95;;;21.00;80.90;;;;;;5015510;28;20246;-77
2023/12/27 11:18:14;;;;;;;4.05;1.60;;;21.00;80.90;;;;;;5014507;28;20017;-76
2023/12/27 11:20:41;;;;;;;5.25;1.80;;;20.90;81.10;;;;;;5014948;28;20500;-76
2023/12/27 11:23:09;;;;;;;6.63;1.90;;;20.90;81.80;;;;;;5032565;28;20025;-80
2023/12/27 11:25:36;;;;;;;5.05;1.40;;;20.90;82.10;;;;;;5016240;28;20190;-77
2023/12/27 11:28:04;;;;;;;6.47;1.70;;;20.90;82.60;;;;;;5013129;28;20014;-76
2023/12/27 11:30:34;;;;;;;7.45;1.65;;;20.90;82.50;;;;;;5014240;28;20034;-76
2023/12/27 11:33:02;;;;;;;6.28;1.52;;;20.90;82.10;;;;;;5015172;28;20033;-76
2023/12/27 11:35:31;;;;;;;6.82;1.80;;;20.90;82.40;;;;;;5022758;28;20156;-75
2023/12/27 11:38:21;;;;;;;6.32;1.45;;;20.80;82.20;;;;;;5014721;28;20053;-75
2023/12/27 11:40:51;;;;;;;9.25;1.63;;;20.80;82.30;;;;;;5015218;28;20477;-76
2023/12/27 11:43:23;;;;;;;6.10;1.88;;;20.80;82.80;;;;;;5015448;28;20034;-77
2023/12/27 11:46:06;;;;;;;13.43;2.10;;;20.80;82.90;;;;;;5027288;28;20032;-75
2023/12/27 11:48:38;;;;;;;7.15;1.63;;;20.80;83.00;;;;;;5019470;28;20125;-75
2023/12/27 11:51:29;;;;;;;4.70;1.70;;;20.70;82.60;;;;;;5020397;28;20032;-75
2023/12/27 11:53:57;;;;;;;6.13;1.63;;;20.60;82.70;;;;;;5018200;28;20029;-75
2023/12/27 11:56:31;;;;;;;5.88;1.58;;;20.70;83.10;;;;;;5014070;28;20030;-75
2023/12/27 11:59:02;;;;;;;12.25;1.90;;;20.70;83.40;;;;;;5012454;28;20635;-76
2023/12/27 12:01:35;;;;;;;6.80;2.05;;;20.70;83.30;;;;;;5025784;28;20021;-76
2023/12/27 12:04:14;;;;;;;11.82;2.35;;;20.60;83.10;;;;;;5007510;28;20037;-80
2023/12/27 12:06:54;;;;;;;7.63;1.55;;;20.60;83.20;;;;;;5033034;28;20057;-76
2023/12/27 12:09:37;;;;;;;8.75;2.17;;;20.60;83.00;;;;;;5028970;28;20025;-76
2023/12/27 12:12:24;;;;;;;5.72;2.03;;;20.50;82.90;;;;;;5011341;28;20038;-76
2023/12/27 12:14:52;;;;;;;5.57;1.77;;;20.50;83.40;;;;;;5030961;28;20108;-77
2023/12/27 12:17:24;;;;;;;6.05;1.40;;;20.50;83.30;;;;;;5029559;28;20505;-77
2023/12/27 12:19:51;;;;;;;6.60;1.88;;;20.50;84.10;;;;;;5013848;28;20124;-76
2023/12/27 12:22:19;;;;;;;6.03;1.80;;;20.50;83.40;;;;;;5015089;28;20052;-76
2023/12/27 12:24:47;;;;;;;5.32;1.75;;;20.50;83.40;;;;;;5013564;28;20045;-77
2023/12/27 12:27:16;;;;;;;7.85;2.35;;;20.50;83.80;;;;;;5013444;28;20018;-76
2023/12/27 12:29:44;;;;;;;6.07;1.98;;;20.50;83.60;;;;;;5025776;28;20033;-86
2023/12/27 12:32:13;;;;;;;11.38;2.20;;;20.50;83.50;;;;;;5010163;28;20488;-77
2023/12/27 12:34:40;;;;;;;6.57;1.60;;;20.40;83.30;;;;;;5011099;28;20061;-76
2023/12/27 12:37:08;;;;;;;9.25;2.05;;;20.40;83.40;;;;;;5019949;28;20025;-80
2023/12/27 12:39:36;;;;;;;5.45;1.73;;;20.40;83.40;;;;;;5033057;28;20025;-77
2023/12/27 12:42:03;;;;;;;4.93;1.50;;;20.40;83.40;;;;;;5026803;28;20493;-77
2023/12/27 12:44:32;;;;;;;10.73;1.95;;;20.30;83.50;;;;;;5022359;28;20435;-76
2023/12/27 12:47:00;;;;;;;5.72;1.52;;;20.40;83.60;;;;;;5033873;28;20512;-76
2023/12/27 12:49:29;;;;;;;5.68;1.65;;;20.30;83.50;;;;;;5015318;28;20025;-80
2023/12/27 12:52:06;;;;;;;9.93;2.00;;;20.30;83.80;;;;;;5020515;28;20477;-76
2023/12/27 12:54:35;;;;;;;4.65;1.50;;;20.30;84.00;;;;;;5013192;28;20369;-77